createdAt,value
2022-12-22T00:00:26.228Z,7.68
2022-12-22T00:03:11.745Z,6.53
2022-12-22T00:05:57.069Z,8.35
2022-12-22T00:08:42.420Z,4.40
2022-12-22T00:11:31.034Z,6.45
2022-12-22T00:14:16.815Z,5.20
2022-12-22T00:17:02.201Z,3.85
2022-12-22T00:19:48.320Z,0.73
2022-12-22T00:22:37.811Z,1.30
2022-12-22T00:25:23.668Z,3.83
2022-12-22T00:28:10.532Z,3.33
2022-12-22T00:30:55.861Z,5.13
2022-12-22T00:33:41.546Z,3.72
2022-12-22T00:36:29.843Z,3.17
2022-12-22T00:39:15.196Z,3.38
2022-12-22T00:42:00.548Z,4.93
2022-12-22T00:44:47.200Z,3.33
2022-12-22T00:47:35.943Z,2.70
2022-12-22T00:50:21.332Z,2.20
2022-12-22T00:53:06.609Z,2.25
2022-12-22T00:55:51.995Z,4.07
2022-12-22T00:58:38.982Z,3.08
2022-12-22T01:01:25.576Z,3.67
2022-12-22T01:04:10.808Z,3.05
2022-12-22T01:06:55.934Z,1.30
2022-12-22T01:09:41.943Z,3.40
2022-12-22T01:12:32.861Z,2.15
2022-12-22T01:15:18.209Z,1.23
2022-12-22T01:18:04.937Z,1.67
2022-12-22T01:20:50.798Z,1.92
2022-12-22T01:23:36.216Z,1.90
2022-12-22T01:26:21.333Z,2.88
2022-12-22T01:29:06.711Z,1.60
2022-12-22T01:31:51.980Z,1.25
2022-12-22T01:34:38.602Z,0.90
2022-12-22T01:37:23.953Z,1.58
2022-12-22T01:40:09.308Z,1.38
2022-12-22T01:42:54.810Z,1.00
2022-12-22T01:45:42.564Z,0.65
2022-12-22T01:48:30.705Z,0.60
2022-12-22T01:51:20.589Z,1.65
2022-12-22T01:54:06.320Z,1.15
2022-12-22T01:56:51.653Z,0.80
2022-12-22T01:59:37.067Z,1.20
2022-12-22T02:02:24.928Z,0.50
2022-12-22T02:05:11.165Z,1.23
2022-12-22T02:08:09.760Z,0.90
2022-12-22T02:11:13.369Z,0.40
2022-12-22T02:14:10.263Z,0.20
2022-12-22T02:17:00.747Z,0.20
2022-12-22T02:20:05.629Z,0.20
2022-12-22T02:22:58.304Z,0.20
2022-12-22T02:25:53.919Z,0.20
2022-12-22T02:28:41.926Z,0.20
2022-12-22T02:31:27.349Z,0.20
2022-12-22T02:34:12.915Z,0.20
2022-12-22T02:37:08.843Z,0.10
2022-12-22T02:40:04.363Z,0.20
2022-12-22T02:42:53.836Z,0.20
2022-12-22T02:45:48.876Z,0.20
2022-12-22T02:48:40.504Z,0.40
2022-12-22T02:51:30.500Z,0.30
2022-12-22T02:54:16.445Z,0.45
2022-12-22T02:57:02.404Z,0.28
2022-12-22T02:59:47.776Z,0.35
2022-12-22T03:02:34.434Z,0.20
2022-12-22T03:05:19.555Z,0.10
2022-12-22T03:08:08.531Z,0.20
2022-12-22T03:10:53.776Z,0.20
2022-12-22T03:13:39.013Z,0.10
2022-12-22T03:16:24.388Z,0.10
2022-12-22T03:19:10.793Z,0.10
2022-12-22T03:21:56.332Z,0.20
2022-12-22T03:24:41.595Z,0.20
2022-12-22T03:27:09.225Z,0.77
2022-12-22T03:29:36.742Z,0.25
2022-12-22T03:32:04.566Z,0.60
2022-12-22T03:34:33.482Z,0.20
2022-12-22T03:37:01.066Z,0.20
2022-12-22T03:39:28.647Z,0.22
2022-12-22T03:42:13.822Z,0.10
2022-12-22T03:44:59.182Z,0.20
2022-12-22T03:47:26.853Z,0.20
2022-12-22T03:49:55.769Z,0.32
2022-12-22T03:52:23.292Z,0.30
2022-12-22T03:54:51.262Z,0.20
2022-12-22T03:57:18.805Z,0.98
2022-12-22T03:59:46.367Z,0.22
2022-12-22T04:02:14.060Z,0.30
2022-12-22T04:04:41.777Z,0.17
2022-12-22T04:07:10.698Z,0.25
2022-12-22T04:09:58.407Z,0.20
2022-12-22T04:12:39.891Z,0.30
2022-12-22T04:15:08.867Z,0.30
2022-12-22T04:17:36.385Z,0.22
2022-12-22T04:20:04.365Z,0.60
2022-12-22T04:22:33.297Z,0.30
2022-12-22T04:25:00.845Z,0.20
2022-12-22T04:27:28.374Z,0.28
2022-12-22T04:29:55.918Z,0.30
2022-12-22T04:32:23.499Z,0.38
2022-12-22T04:34:51.038Z,0.43
2022-12-22T04:37:18.580Z,0.40
2022-12-22T04:39:47.456Z,0.20
2022-12-22T04:42:15.090Z,0.30
2022-12-22T04:44:42.681Z,0.20
2022-12-22T04:47:10.270Z,0.30
2022-12-22T04:49:37.813Z,0.20
2022-12-22T04:52:05.717Z,0.28
2022-12-22T04:54:33.304Z,0.28
2022-12-22T04:57:02.185Z,0.38
2022-12-22T04:59:29.729Z,0.40
2022-12-22T05:01:57.361Z,0.32
2022-12-22T05:04:25.135Z,0.43
2022-12-22T05:06:52.660Z,0.38
2022-12-22T05:09:20.193Z,0.38
2022-12-22T05:11:47.732Z,0.30
2022-12-22T05:14:16.802Z,0.45
2022-12-22T05:16:44.451Z,0.40
2022-12-22T05:19:12.069Z,0.30
2022-12-22T05:21:39.650Z,0.30
2022-12-22T05:24:07.996Z,0.43
2022-12-22T05:26:35.666Z,0.25
2022-12-22T05:29:03.310Z,0.30
2022-12-22T05:31:32.200Z,0.40
2022-12-22T05:33:59.726Z,0.50
2022-12-22T05:36:27.395Z,0.30
2022-12-22T05:38:54.944Z,0.50
2022-12-22T05:41:22.557Z,0.73
2022-12-22T05:43:50.134Z,0.40
2022-12-22T05:46:17.748Z,0.45
2022-12-22T05:48:46.655Z,0.60
2022-12-22T05:51:14.249Z,0.40
2022-12-22T05:53:42.193Z,0.40
2022-12-22T05:56:10.006Z,0.55
2022-12-22T05:58:39.587Z,0.85
2022-12-22T06:01:07.547Z,0.50
2022-12-22T06:03:35.277Z,0.63
2022-12-22T06:06:04.462Z,0.60
2022-12-22T06:08:31.997Z,0.50
2022-12-22T06:11:00.028Z,0.80
2022-12-22T06:13:28.079Z,0.60
2022-12-22T06:15:55.749Z,0.50
2022-12-22T06:18:23.428Z,0.47
2022-12-22T06:20:52.338Z,0.50
2022-12-22T06:23:21.748Z,0.95
2022-12-22T06:25:55.334Z,1.00
2022-12-22T06:28:23.008Z,1.13
2022-12-22T06:30:50.658Z,0.60
2022-12-22T06:33:18.211Z,0.65
2022-12-22T06:35:46.052Z,0.80
2022-12-22T06:38:13.675Z,1.40
2022-12-22T06:40:42.626Z,0.70
2022-12-22T06:43:10.043Z,0.73
2022-12-22T06:45:39.349Z,0.77
2022-12-22T06:48:07.356Z,0.60
2022-12-22T06:50:35.409Z,0.82
2022-12-22T06:53:03.958Z,0.88
2022-12-22T06:55:31.767Z,1.13
2022-12-22T06:58:00.778Z,0.77
2022-12-22T07:00:28.448Z,0.60
2022-12-22T07:02:56.452Z,0.95
2022-12-22T07:05:24.672Z,0.80
2022-12-22T07:07:52.431Z,0.95
2022-12-22T07:10:40.313Z,1.70
2022-12-22T07:13:20.211Z,1.08
2022-12-22T07:15:55.291Z,1.08
2022-12-22T07:18:27.313Z,1.05
2022-12-22T07:20:55.691Z,0.80
2022-12-22T07:23:23.245Z,1.20
2022-12-22T07:25:50.809Z,0.90
2022-12-22T07:28:21.507Z,0.68
2022-12-22T07:30:49.287Z,1.13
2022-12-22T07:33:16.820Z,0.90
2022-12-22T07:35:44.489Z,1.10
2022-12-22T07:38:13.078Z,0.95
2022-12-22T07:40:42.482Z,1.10
2022-12-22T07:43:10.138Z,1.50
2022-12-22T07:45:39.319Z,1.25
2022-12-22T07:48:27.292Z,0.95
2022-12-22T07:50:54.420Z,0.93
2022-12-22T07:53:22.001Z,1.13
2022-12-22T07:55:49.558Z,1.20
2022-12-22T07:58:17.076Z,0.80
2022-12-22T08:00:45.964Z,0.88
2022-12-22T08:03:13.741Z,1.15
2022-12-22T08:05:41.319Z,0.80
2022-12-22T08:08:08.826Z,1.17
2022-12-22T08:10:36.336Z,1.38
2022-12-22T08:13:03.957Z,1.52
2022-12-22T08:15:31.634Z,1.08
2022-12-22T08:18:00.513Z,0.90
2022-12-22T08:20:28.170Z,1.90
2022-12-22T08:22:57.557Z,2.45
2022-12-22T08:25:25.224Z,1.02
2022-12-22T08:27:56.356Z,2.15
2022-12-22T08:30:23.918Z,0.65
2022-12-22T08:32:52.351Z,0.85
2022-12-22T08:35:21.365Z,1.27
2022-12-22T08:37:49.715Z,1.50
2022-12-22T08:40:21.384Z,0.90
2022-12-22T08:42:52.599Z,0.90
2022-12-22T08:45:20.166Z,0.93
2022-12-22T08:47:47.694Z,1.00
2022-12-22T08:50:15.277Z,0.90
2022-12-22T08:52:44.280Z,0.90
2022-12-22T08:55:12.218Z,0.98
2022-12-22T08:57:39.745Z,2.05
2022-12-22T09:00:08.839Z,1.00
2022-12-22T09:02:38.505Z,1.30
2022-12-22T09:05:06.513Z,1.20
2022-12-22T09:07:34.068Z,1.45
2022-12-22T09:10:02.991Z,1.33
2022-12-22T09:12:30.588Z,1.38
2022-12-22T09:14:58.496Z,1.10
2022-12-22T09:17:26.112Z,1.35
2022-12-22T09:19:53.849Z,0.95
2022-12-22T09:22:28.238Z,1.05
2022-12-22T09:24:56.573Z,1.02
2022-12-22T09:27:25.665Z,1.25
2022-12-22T09:29:53.269Z,1.40
2022-12-22T09:32:20.986Z,0.95
2022-12-22T09:34:49.278Z,1.05
2022-12-22T09:37:17.295Z,1.38
2022-12-22T09:39:45.087Z,1.08
2022-12-22T09:42:15.470Z,1.35
2022-12-22T09:44:46.087Z,1.50
2022-12-22T09:47:21.872Z,1.27
2022-12-22T09:49:50.246Z,1.25
2022-12-22T09:52:25.891Z,1.38
2022-12-22T09:54:53.413Z,1.30
2022-12-22T09:57:21.228Z,0.90
2022-12-22T09:59:50.355Z,1.17
2022-12-22T10:02:28.017Z,1.27
2022-12-22T10:05:11.679Z,1.30
2022-12-22T10:10:20.987Z,1.13
2022-12-22T10:12:50.936Z,1.85
2022-12-22T10:15:21.960Z,1.20
2022-12-22T10:17:51.557Z,0.60
2022-12-22T10:20:26.217Z,0.98
2022-12-22T10:22:55.916Z,0.82
2022-12-22T10:28:36.305Z,1.10
2022-12-22T10:31:18.606Z,0.60
2022-12-22T10:33:48.472Z,1.25
2022-12-22T10:36:21.047Z,0.95
2022-12-22T10:38:59.795Z,0.70
2022-12-22T10:41:29.910Z,1.00
2022-12-22T10:44:00.180Z,0.98
2022-12-22T10:46:36.557Z,0.88
2022-12-22T10:49:17.833Z,1.10
2022-12-22T10:51:49.065Z,0.90
2022-12-22T10:54:31.963Z,0.80
2022-12-22T10:57:05.934Z,0.97
2022-12-22T10:59:34.634Z,0.80
2022-12-22T11:02:38.902Z,1.05
2022-12-22T11:05:09.488Z,1.40
2022-12-22T11:07:39.273Z,0.88
2022-12-22T11:10:19.198Z,0.88
2022-12-22T11:13:00.165Z,1.02
2022-12-22T11:15:35.592Z,1.33
2022-12-22T11:18:19.277Z,0.90
2022-12-22T11:23:31.686Z,1.40
2022-12-22T11:26:10.020Z,1.13
2022-12-22T11:28:53.652Z,1.17
2022-12-22T11:34:20.833Z,0.88
2022-12-22T11:37:02.740Z,1.20
2022-12-22T11:39:40.012Z,1.35
2022-12-22T11:42:24.075Z,1.83
2022-12-22T11:45:02.302Z,1.10
2022-12-22T11:47:49.326Z,1.35
2022-12-22T11:50:59.265Z,1.17
2022-12-22T11:53:40.711Z,1.25
2022-12-22T11:56:22.705Z,1.23
2022-12-22T11:59:24.385Z,0.90
2022-12-22T12:02:10.847Z,1.23
2022-12-22T12:04:56.397Z,1.10
2022-12-22T12:07:30.728Z,1.00
2022-12-22T12:10:11.455Z,1.10
2022-12-22T12:12:47.645Z,1.20
2022-12-22T12:15:27.533Z,1.35
2022-12-22T12:18:09.973Z,1.40
2022-12-22T12:20:51.594Z,1.33
2022-12-22T12:23:36.180Z,2.20
2022-12-22T12:26:11.605Z,1.80
2022-12-22T12:28:51.582Z,1.23
2022-12-22T12:31:26.229Z,1.83
2022-12-22T12:33:59.057Z,1.65
2022-12-22T12:36:40.439Z,1.17
2022-12-22T12:39:17.287Z,1.75
2022-12-22T12:41:57.864Z,2.63
2022-12-22T12:44:28.697Z,2.72
2022-12-22T12:47:04.989Z,2.33
2022-12-22T12:49:56.076Z,2.33
2022-12-22T12:53:05.892Z,2.50
2022-12-22T12:55:52.479Z,2.63
2022-12-22T12:58:51.633Z,1.92
2022-12-22T13:01:53.761Z,1.45
2022-12-22T13:05:01.575Z,2.53
2022-12-22T13:08:06.860Z,1.30
2022-12-22T13:10:41.225Z,1.33
2022-12-22T13:13:12.619Z,1.80
2022-12-22T13:15:42.482Z,1.60
2022-12-22T13:18:41.878Z,1.40
2022-12-22T13:24:24.035Z,1.73
2022-12-22T13:26:56.181Z,2.50
2022-12-22T13:29:30.812Z,1.75
2022-12-22T13:32:02.645Z,1.90
2022-12-22T13:34:57.221Z,1.90
2022-12-22T13:37:28.363Z,1.67
2022-12-22T13:40:14.483Z,1.90
2022-12-22T13:42:48.189Z,3.97
2022-12-22T13:45:27.225Z,2.65
2022-12-22T13:47:55.431Z,2.75
2022-12-22T13:50:26.244Z,2.63
2022-12-22T13:52:55.508Z,3.75
2022-12-22T13:55:27.348Z,2.88
2022-12-22T13:57:59.343Z,2.70
2022-12-22T14:00:29.471Z,2.00
2022-12-22T14:02:57.234Z,2.40
2022-12-22T14:05:32.012Z,1.27
2022-12-22T14:08:01.853Z,1.80
2022-12-22T14:10:38.292Z,1.77
2022-12-22T14:13:12.997Z,1.92
2022-12-22T14:15:40.609Z,1.67
2022-12-22T14:18:08.309Z,2.47
2022-12-22T14:20:40.093Z,2.45
2022-12-22T14:23:11.953Z,1.75
2022-12-22T14:25:42.802Z,2.60
2022-12-22T14:28:19.556Z,1.55
2022-12-22T14:30:51.408Z,1.45
2022-12-22T14:33:28.585Z,1.77
2022-12-22T14:36:06.624Z,1.60
2022-12-22T14:38:40.568Z,7.88
2022-12-22T14:41:32.764Z,3.05
2022-12-22T14:44:03.434Z,3.80
2022-12-22T14:46:38.396Z,2.15
2022-12-22T14:49:07.016Z,1.67
2022-12-22T14:51:34.719Z,1.52
2022-12-22T14:54:03.587Z,2.47
2022-12-22T14:56:31.584Z,1.63
2022-12-22T14:59:11.846Z,2.30
2022-12-22T15:01:39.563Z,2.70
2022-12-22T15:04:16.667Z,2.33
2022-12-22T15:06:47.775Z,2.85
2022-12-22T15:10:13.161Z,2.45
2022-12-22T15:12:19.918Z,2.20
2022-12-22T15:14:49.659Z,2.45
2022-12-22T15:17:23.363Z,2.47
2022-12-22T15:19:51.868Z,2.33
2022-12-22T15:22:19.367Z,2.13
2022-12-22T15:24:47.820Z,1.83
2022-12-22T15:27:15.518Z,1.63
2022-12-22T15:29:43.073Z,1.85
2022-12-22T15:32:13.942Z,1.60
2022-12-22T15:34:41.522Z,1.65
2022-12-22T15:37:12.734Z,2.08
2022-12-22T15:39:40.653Z,2.60
2022-12-22T15:42:08.371Z,1.77
2022-12-22T15:44:38.872Z,2.28
2022-12-22T15:47:09.233Z,2.00
2022-12-22T15:49:38.294Z,2.75
2022-12-22T15:52:07.662Z,2.88
2022-12-22T15:54:36.962Z,2.53
2022-12-22T15:57:04.809Z,2.15
2022-12-22T15:59:32.397Z,2.50
2022-12-22T16:02:01.913Z,2.22
2022-12-22T16:04:29.934Z,2.30
2022-12-22T16:06:59.834Z,2.60
2022-12-22T16:09:31.216Z,1.80
2022-12-22T16:11:59.282Z,2.35
2022-12-22T16:14:26.978Z,1.92
2022-12-22T16:16:54.592Z,1.98
2022-12-22T16:19:22.148Z,2.28
2022-12-22T16:21:53.935Z,1.98
2022-12-22T16:24:28.867Z,2.42
2022-12-22T16:26:57.724Z,2.00
2022-12-22T16:29:26.178Z,2.30
2022-12-22T16:31:54.056Z,3.08
2022-12-22T16:34:21.657Z,3.10
2022-12-22T16:36:49.331Z,2.92
2022-12-22T16:39:16.938Z,2.85
2022-12-22T16:41:46.356Z,3.95
2022-12-22T16:44:27.561Z,3.30
2022-12-22T16:46:57.319Z,3.10
2022-12-22T16:49:27.101Z,3.20
2022-12-22T16:51:55.891Z,3.00
2022-12-22T16:54:23.651Z,2.58
2022-12-22T16:56:52.595Z,3.92
2022-12-22T16:59:20.146Z,2.58
2022-12-22T17:01:51.533Z,2.28
2022-12-22T17:04:22.969Z,3.45
2022-12-22T17:06:51.533Z,3.33
2022-12-22T17:09:23.212Z,4.07
2022-12-22T17:11:54.076Z,3.80
2022-12-22T17:14:29.033Z,4.57
2022-12-22T17:16:58.757Z,4.22
2022-12-22T17:19:27.945Z,3.03
2022-12-22T17:21:59.160Z,3.13
2022-12-22T17:24:30.422Z,3.63
2022-12-22T17:27:05.237Z,2.90
2022-12-22T17:29:35.274Z,3.47
2022-12-22T17:32:03.009Z,3.42
2022-12-22T17:34:30.637Z,2.58
2022-12-22T17:36:59.801Z,3.33
2022-12-22T17:39:27.466Z,3.10
2022-12-22T17:41:57.278Z,2.22
2022-12-22T17:44:27.557Z,2.00
2022-12-22T17:46:55.352Z,2.30
2022-12-22T17:49:23.028Z,2.63
2022-12-22T17:51:51.093Z,2.90
2022-12-22T17:54:24.359Z,2.63
2022-12-22T17:56:53.003Z,2.83
2022-12-22T17:59:20.689Z,2.50
2022-12-22T18:01:49.781Z,2.42
2022-12-22T18:04:18.116Z,3.20
2022-12-22T18:06:46.059Z,1.85
2022-12-22T18:09:20.900Z,2.72
2022-12-22T18:11:49.209Z,3.22
2022-12-22T18:14:18.361Z,2.78
2022-12-22T18:16:45.998Z,3.42
2022-12-22T18:19:15.045Z,3.15
2022-12-22T18:21:42.809Z,2.60
2022-12-22T18:24:16.290Z,2.10
2022-12-22T18:29:15.100Z,1.95
2022-12-22T18:31:43.922Z,1.90
2022-12-22T18:34:11.803Z,2.10
2022-12-22T18:36:42.446Z,2.47
2022-12-22T18:39:17.761Z,2.15
2022-12-22T18:41:45.973Z,1.90
2022-12-22T18:44:16.674Z,1.98
2022-12-22T18:46:44.444Z,2.10
2022-12-22T18:49:12.095Z,2.47
2022-12-22T18:51:42.665Z,1.95
2022-12-22T18:54:22.197Z,2.35
2022-12-22T18:56:51.331Z,2.58
2022-12-22T18:59:24.467Z,2.08
2022-12-22T19:01:52.978Z,2.50
2022-12-22T19:04:20.764Z,2.65
2022-12-22T19:06:49.703Z,2.35
2022-12-22T19:09:17.409Z,2.25
2022-12-22T19:11:45.380Z,2.20
2022-12-22T19:14:18.741Z,2.22
2022-12-22T19:19:18.476Z,1.95
2022-12-22T19:21:46.119Z,1.48
2022-12-22T19:24:15.152Z,1.90
2022-12-22T19:26:42.907Z,1.95
2022-12-22T19:29:14.819Z,1.48
2022-12-22T19:31:44.239Z,1.75
2022-12-22T19:34:20.639Z,1.77
2022-12-22T19:36:48.429Z,1.55
2022-12-22T19:39:17.716Z,1.65
2022-12-22T19:41:47.916Z,3.25
2022-12-22T19:44:19.903Z,1.98
2022-12-22T19:46:48.035Z,5.35
2022-12-22T19:49:17.625Z,2.80
2022-12-22T19:51:45.224Z,2.05
2022-12-22T19:54:13.143Z,1.83
2022-12-22T19:56:43.164Z,2.10
2022-12-22T19:59:27.011Z,2.13
2022-12-22T20:01:57.851Z,1.58
2022-12-22T20:04:25.645Z,1.65
2022-12-22T20:06:53.255Z,2.35
2022-12-22T20:09:20.811Z,1.75
2022-12-22T20:11:49.858Z,1.73
2022-12-22T20:14:18.671Z,1.83
2022-12-22T20:16:46.842Z,2.88
2022-12-22T20:19:14.962Z,1.70
2022-12-22T20:21:43.216Z,1.80
2022-12-22T20:24:20.275Z,1.60
2022-12-22T20:26:53.751Z,2.25
2022-12-22T20:29:25.229Z,1.10
2022-12-22T20:31:52.970Z,0.70
2022-12-22T20:34:20.605Z,0.65
2022-12-22T20:36:48.219Z,0.57
2022-12-22T20:39:18.661Z,0.60
2022-12-22T20:41:52.687Z,0.70
2022-12-22T20:44:20.700Z,0.70
2022-12-22T20:46:49.925Z,0.80
2022-12-22T20:49:17.584Z,0.82
2022-12-22T20:51:45.207Z,0.90
2022-12-22T20:54:14.185Z,0.50
2022-12-22T20:56:45.658Z,0.80
2022-12-22T20:59:16.499Z,0.52
2022-12-22T21:01:44.278Z,1.15
2022-12-22T21:04:14.501Z,0.50
2022-12-22T21:06:46.454Z,0.98
2022-12-22T21:09:15.850Z,1.02
2022-12-22T21:11:43.509Z,0.40
2022-12-22T21:14:12.596Z,0.60
2022-12-22T21:16:41.242Z,0.88
2022-12-22T21:19:09.459Z,0.60
2022-12-22T21:21:38.377Z,0.55
2022-12-22T21:24:06.334Z,0.90
2022-12-22T21:26:37.053Z,1.52
2022-12-22T21:29:09.333Z,0.95
2022-12-22T21:31:36.969Z,0.70
2022-12-22T21:34:04.599Z,1.85
2022-12-22T21:36:34.803Z,1.60
2022-12-22T21:39:16.942Z,1.77
2022-12-22T21:42:04.380Z,1.42
2022-12-22T21:44:34.173Z,1.23
2022-12-22T21:47:02.629Z,1.80
2022-12-22T21:49:32.171Z,2.30
2022-12-22T21:52:00.181Z,1.60
2022-12-22T21:54:29.389Z,2.28
2022-12-22T21:56:57.208Z,1.20
2022-12-22T21:59:25.098Z,1.15
2022-12-22T22:01:53.461Z,1.50
2022-12-22T22:04:22.185Z,1.80
2022-12-22T22:06:49.958Z,0.73
2022-12-22T22:09:17.561Z,0.43
2022-12-22T22:12:04.322Z,0.60
2022-12-22T22:14:32.023Z,2.50
2022-12-22T22:16:59.620Z,0.80
2022-12-22T22:19:27.201Z,0.75
2022-12-22T22:21:54.876Z,0.52
2022-12-22T22:24:22.506Z,0.75
2022-12-22T22:26:51.691Z,0.68
2022-12-22T22:29:19.556Z,0.70
2022-12-22T22:31:47.226Z,0.60
2022-12-22T22:34:15.294Z,1.05
2022-12-22T22:36:42.903Z,0.70
2022-12-22T22:39:10.510Z,0.70
2022-12-22T22:41:43.324Z,0.80
2022-12-22T22:44:13.116Z,0.57
2022-12-22T22:46:40.885Z,0.60
2022-12-22T22:49:09.302Z,0.70
2022-12-22T22:51:37.227Z,0.80
2022-12-22T22:54:04.910Z,2.13
2022-12-22T22:56:32.603Z,2.80
2022-12-22T22:59:00.452Z,1.70
2022-12-22T23:01:29.725Z,1.70
2022-12-22T23:03:57.648Z,1.45
2022-12-22T23:06:25.490Z,1.52
2022-12-22T23:08:54.190Z,1.17
2022-12-22T23:11:21.915Z,1.38
2022-12-22T23:13:49.532Z,1.20
2022-12-22T23:16:21.194Z,1.20
2022-12-22T23:18:52.578Z,1.95
2022-12-22T23:21:21.339Z,2.17
2022-12-22T23:23:49.068Z,2.70
2022-12-22T23:26:16.655Z,3.30
2022-12-22T23:28:44.249Z,3.30
2022-12-22T23:31:12.838Z,3.67
2022-12-22T23:33:40.518Z,3.40
2022-12-22T23:36:09.924Z,2.50
2022-12-22T23:38:37.725Z,2.45
2022-12-22T23:41:07.348Z,2.95
2022-12-22T23:43:35.524Z,3.80
2022-12-22T23:46:07.180Z,3.92
2022-12-22T23:48:35.014Z,2.53
2022-12-22T23:51:02.584Z,2.47
2022-12-22T23:53:31.475Z,2.45
2022-12-22T23:55:59.352Z,2.00
2022-12-22T23:58:27.021Z,1.52
